»·PEaware :: N716TH L52-L88

N716TH :: L52-L88

FLIGHT INFORMATION

Flight Status: Arrived
Operator: Privately registered:
United States
More flights under this callsign
Pilot: Danny R. (17997)
Aircraft: CESSNA 172 SKYHAWK
(C172)
More flights by this aircraft type
Origin: L52 Oceano Co
United States
Destination: L88 New Cuyama
United States
More flights between these airports :: More routes between these airports
Route: L52 WYNNR L88
File this flight plan on PilotEdge
Remarks: CAT1
Altitude:
(Current/Filed)
5,500ft
Speed:
(Current/Filed)
100kts
Departed: 24-Jan-18 09:42 AM
Arrived: 24-Jan-18 10:21 AM
Distance/Time
Traveled:
47nm/0:39
Distance/Time
To Go:
Arrived

Flight Plot

Page will automatically refresh every two minutes.


Map Options




Map Legend


Flown Route
Filed Route
Departure Airport
Arrival Airport
Navaid (VOR, NDB)
Fix

Horizontal Profiles

Position Reports

Time Latitude Longitude Heading Altitude Ground
Speed
24-Jan-18 09:28 35.102275 -120.622530 210 18ft 0kts
24-Jan-18 09:29 35.102275 -120.622530 210 18ft 0kts
24-Jan-18 09:30 35.102275 -120.622530 210 18ft 0kts
24-Jan-18 09:31 35.102275 -120.622530 210 18ft 0kts
24-Jan-18 09:32 35.102275 -120.622530 210 18ft 0kts
24-Jan-18 09:33 35.102275 -120.622530 210 18ft 0kts
24-Jan-18 09:34 35.102275 -120.622530 210 18ft 0kts
24-Jan-18 09:35 35.102275 -120.622530 210 18ft 0kts
24-Jan-18 09:36 35.102275 -120.622530 210 18ft 0kts
24-Jan-18 09:37 35.102275 -120.622530 210 18ft 0kts
24-Jan-18 09:38 35.102275 -120.622530 210 18ft 0kts
24-Jan-18 09:39 35.102275 -120.622530 210 18ft 0kts
24-Jan-18 09:40 35.102275 -120.622530 210 18ft 0kts
24-Jan-18 09:41 35.102274 -120.622530 210 18ft 0kts
24-Jan-18 09:42 35.101646 -120.622300 211 18ft 7kts
24-Jan-18 09:43 35.099838 -120.620031 124 18ft 12kts
24-Jan-18 09:44 35.099425 -120.619467 68 18ft 0kts
24-Jan-18 09:45 35.099425 -120.619468 69 18ft 0kts
24-Jan-18 09:46 35.099425 -120.619468 69 18ft 0kts
24-Jan-18 09:47 35.099483 -120.619361 38 18ft 0kts
24-Jan-18 09:48 35.103415 -120.626091 297 197ft 69kts
24-Jan-18 09:49 35.103244 -120.646338 204 1076ft 75kts
24-Jan-18 09:50 35.086628 -120.627660 122 1518ft 97kts
24-Jan-18 09:51 35.077239 -120.599295 84 1842ft 91kts
24-Jan-18 09:52 35.088850 -120.572594 46 2559ft 90kts
24-Jan-18 09:53 35.107107 -120.551328 38 3216ft 91kts
24-Jan-18 09:54 35.123732 -120.531706 69 3946ft 86kts
24-Jan-18 09:55 35.127936 -120.500525 89 4476ft 91kts
24-Jan-18 09:56 35.127622 -120.468642 87 5005ft 94kts
24-Jan-18 09:57 35.128151 -120.436299 88 5506ft 95kts
24-Jan-18 09:58 35.128809 -120.403087 87 5779ft 103kts
24-Jan-18 09:59 35.130835 -120.367086 85 5770ft 106kts
24-Jan-18 10:00 35.131542 -120.333710 91 5516ft 108kts
24-Jan-18 10:01 35.131738 -120.299453 87 5565ft 97kts
24-Jan-18 10:02 35.130557 -120.266084 96 5579ft 97kts
24-Jan-18 10:03 35.127807 -120.232918 91 5569ft 100kts
24-Jan-18 10:04 35.126146 -120.198684 103 5530ft 102kts
24-Jan-18 10:05 35.113515 -120.168398 119 5541ft 98kts
24-Jan-18 10:06 35.101942 -120.138146 116 5521ft 97kts
24-Jan-18 10:07 35.089657 -120.108440 119 5499ft 98kts
24-Jan-18 10:08 35.075291 -120.080167 125 5483ft 97kts
24-Jan-18 10:09 35.059979 -120.052706 118 5465ft 97kts
24-Jan-18 10:10 35.042427 -120.029861 137 5500ft 90kts
24-Jan-18 10:11 35.024628 -120.007547 134 5589ft 99kts
24-Jan-18 10:12 35.005861 -119.983180 132 5541ft 106kts
24-Jan-18 10:13 34.987092 -119.955066 123 5474ft 110kts
24-Jan-18 10:14 34.970738 -119.922756 122 5400ft 111kts
24-Jan-18 10:15 34.954808 -119.892859 123 5355ft 103kts
24-Jan-18 10:16 34.940037 -119.865121 122 5357ft 94kts
24-Jan-18 10:17 34.928757 -119.835860 107 5076ft 95kts
24-Jan-18 10:18 34.921965 -119.806144 103 4721ft 89kts
24-Jan-18 10:19 34.914233 -119.777927 111 4657ft 88kts
24-Jan-18 10:20 34.908159 -119.749446 65 4660ft 89kts
24-Jan-18 10:21 34.919220 -119.722360 63 4124ft 80kts
24-Jan-18 10:22 34.928801 -119.698618 98 3267ft 76kts
24-Jan-18 10:23 34.922558 -119.676695 110 3159ft 64kts
24-Jan-18 10:24 34.922829 -119.657343 24 3051ft 62kts
24-Jan-18 10:25 34.932961 -119.668018 294 2618ft 65kts
24-Jan-18 10:26 34.939783 -119.685174 296 2207ft 42kts
24-Jan-18 10:27 34.942550 -119.691293 21 2207ft 0kts
24-Jan-18 10:28 34.942649 -119.690707 117 2207ft 6kts
24-Jan-18 10:29 34.942655 -119.690481 17 2207ft 0kts
24-Jan-18 10:30 34.942655 -119.690481 17 2207ft 0kts
24-Jan-18 10:31 34.942655 -119.690481 17 2207ft 0kts

Navigation Log

Ident Type
Flight plan parsing failed, navigation log unavailable